x

Canaveral East - 120nm East Of Cape Canaveral (41010) Weather Station

3:20pm - Tue 30th Sep 2014 All times are EDT. -4 hours from GMT.

  • Wind
    20mph, 22mph gusts
  • Sea Temp 84°f
  • Air Temp 82°f
  • Sea Pressure 1008.6mb
  • Canaveral East - 120nm East Of Cape Canaveral
  • Canaveral East - 120nm East Of Cape Canaveral

More Historic Weather Station data

Upgrade to MSW Pro to gain access to the past 30 days of data for over 8000 Wavebouys and Weather Stations around the globe.

Join Pro

Comparision Forecast

View Surf forecast
   
Tue 09/30 3:20pm  -   -   -  20 22 mph 1008.6mb 84f 82f
2:50pm 4ft 5s 4s 20 22 mph 1008.7mb 84f 82f
2:20pm  -   -   -  20 25 mph 1009mb 84f 82f
1:50pm 4ft 5s 4s 20 25 mph 1009.1mb 84f 82f
1:20pm  -   -   -  20 25 mph 1009.4mb 84f 82f
12:50pm 3.5ft 4s 4s 22 27 mph 1009.3mb 84f 82f
12:20pm  -   -   -  22 25 mph 1009.7mb 84f 82f
11:50am 3.5ft 8s 4s 22 25 mph 1009.9mb 84f 82f
11:20am  -   -   -  22 25 mph 1010mb 84f 82f
10:50am 3.5ft 8s 5s 16 20 mph 1010mb 84f 81f
10:20am  -   -   -  16 18 mph 1010.2mb 84f 80f
9:50am 3.5ft 9s 5s 18 20 mph 1010.3mb 85f 79f
9:20am  -   -   -  13 16 mph 1010.1mb 85f 80f
8:50am 3.5ft 8s 5s 18 20 mph 1009.8mb 85f 82f
8:20am  -   -   -  16 18 mph 1009.9mb 85f 82f
7:50am 3.5ft 6s 5s 16 18 mph 1009.7mb 85f 82f
7:20am  -   -   -  16 20 mph 1009.4mb 85f 82f
6:50am 3.5ft 9s 5s 16 18 mph 1009.6mb 85f 82f
6:20am  -   -   -  16 18 mph 1009.5mb 85f 81f
5:50am 3ft 8s 5s 16 20 mph 1009.2mb 85f 81f
5:20am  -   -   -  16 18 mph 1008.9mb 85f 81f
4:50am 3.5ft 6s 5s 16 20 mph 1008.8mb 85f 80f
4:20am  -   -   -  16 18 mph 1008.8mb 85f 80f
3:50am 3.5ft 8s 5s 13 16 mph 1009mb 85f 80f
3:20am  -   -   -  11 13 mph 1009.2mb 85f 80f
2:50am 3.5ft 9s 5s 11 13 mph 1009.6mb 84f 79f
2:20am  -   -   -  13 16 mph 1009.9mb 84f 78f
1:50am 3.5ft 8s 6s 13 16 mph 1010.2mb 84f 78f
1:20am  -   -   -  9 13 mph 1010.5mb 85f 78f
12:50am 3.5ft 8s 5s 9 11 mph 1010.8mb 85f 78f
12:20am  -   -   -  4 7 mph 1011.4mb 84f 77f
Mon 09/29 11:50pm 3.5ft 9s 6s 4 7 mph 1011.9mb 84f 76f
11:20pm  -   -   -  7 9 mph 1012mb 85f 76f
10:50pm 3.5ft 8s 5s 13 16 mph 1012mb 85f 76f
10:20pm  -   -   -  22 34 mph 1011.9mb 85f 78f
9:50pm 3.5ft 8s 6s 9 13 mph 1011.8mb 85f 81f
9:20pm  -   -   -  4 7 mph 1011.8mb 85f 78f
8:50pm 3.5ft 8s 6s 9 11 mph 1011.9mb 85f 77f
8:20pm  -   -   -  13 20 mph 1011.4mb 85f 79f
7:50pm 3.5ft 8s 6s 4 13 mph 1011.1mb 85f 78f
7:20pm  -   -   -  25 31 mph 1011.1mb 85f 76f
6:50pm 3.5ft 8s 6s 13 18 mph 1010.8mb 85f 83f
6:20pm  -   -   -  13 16 mph 1010.8mb 85f 83f
5:50pm 3.5ft 9s 6s 13 18 mph 1010.8mb 85f 82f
5:20pm  -   -   -  13 16 mph 1010.6mb 85f 83f
4:50pm 3.5ft 8s 6s 9 18 mph 1010.8mb 85f 80f
4:20pm  -   -   -  20 25 mph 1010.6mb 85f 78f
3:50pm 3.5ft 8s 6s 9 11 mph 1010.9mb 85f 83f
3:20pm  -   -   -  9 13 mph 1011.1mb 85f 83f
2:50pm 3.5ft 8s 6s 9 11 mph 1011.3mb 85f 83f
2:20pm  -   -   -  9 11 mph 1011.6mb 85f 83f
1:50pm 3.5ft 9s 6s 9 11 mph 1012.1mb 85f 83f
1:20pm  -   -   -  9 11 mph 1012.7mb 85f 83f
12:50pm 3.5ft 8s 6s 9
mph
1013.1mb 85f 83f
12:20pm  -   -   -  7 11 mph 1013.2mb 85f 83f
11:50am 3.5ft 8s 6s 9 11 mph 1013.6mb 85f 83f
11:20am  -   -   -  9 11 mph 1013.7mb 85f 83f
10:50am 3.5ft 9s 6s 7 9 mph 1013.8mb 85f 83f
10:20am  -   -   -  7 9 mph 1013.9mb 85f 83f
9:50am 4ft 8s 6s 4 7 mph 1013.9mb 85f 83f
9:20am  -   -   -  7
mph
1014mb 85f 83f
8:50am 4ft 9s 6s 7 9 mph 1013.9mb 85f 83f
8:20am  -   -   -  7 9 mph 1013.9mb 85f 83f
7:50am 3.5ft 8s 6s 7 9 mph 1013.8mb 85f 83f
7:20am  -   -   -  7 9 mph 1014mb 85f 83f
6:50am 3.5ft 8s 6s 7 9 mph 1013.9mb 85f 83f
6:20am  -   -   -  7 9 mph 1013.7mb 85f 82f
5:50am 4ft 8s 6s 7 9 mph 1013.8mb 85f 82f
5:20am  -   -   -  4 7 mph 1013.6mb 85f 82f
4:50am 3.5ft 8s 6s 7 9 mph 1013.4mb 85f 82f
4:20am  -   -   -  7 9 mph 1013.4mb 85f 82f
3:50am 4.5ft 9s 6s 7 9 mph 1013.4mb 85f 82f
3:20am  -   -   -  7 9 mph 1013.5mb 85f 83f
2:50am 4ft 8s 6s 7 9 mph 1013.8mb 85f 83f
2:20am  -   -   -  9 11 mph 1014.3mb 85f 83f
1:50am 4ft 8s 6s 7 11 mph 1014.5mb 85f 82f
1:20am  -   -   -  7 11 mph 1014.8mb 85f 82f
12:50am 4ft 8s 6s 9 11 mph 1015mb 85f 82f
12:20am  -   -   -  11 13 mph 1015.4mb 85f 83f
Sun 09/28 11:50pm 4ft 8s 6s 9 11 mph 1015.6mb 85f 83f
11:20pm  -   -   -  9 11 mph 1015.8mb 85f 83f
10:50pm 4ft 8s 6s 9 11 mph 1015.8mb 85f 83f
10:20pm  -   -   -  9 11 mph 1015.8mb 85f 83f
9:50pm 4ft 8s 6s 9 11 mph 1015.7mb 85f 83f
9:20pm  -   -   -  9 13 mph 1015.5mb 85f 83f
8:50pm 4ft 8s 6s 11
mph
1015.3mb 85f 83f
8:20pm  -   -   -  9 11 mph 1015.1mb 85f 83f
7:50pm 4ft 8s 6s 9 11 mph 1015mb 85f 83f
7:20pm  -   -   -  9 11 mph 1014.7mb 85f 83f
6:50pm 4.5ft 8s 6s 9 11 mph 1014.6mb 85f 83f
6:20pm  -   -   -  9 11 mph 1014.6mb 85f 83f
5:50pm 4ft 9s 6s 9 11 mph 1014.6mb 85f 83f
5:20pm  -   -   -  11 13 mph 1014.5mb 85f 83f
4:50pm 4.5ft 9s 6s 11 13 mph 1014.4mb 85f 83f
4:20pm  -   -   -  11 13 mph 1014.5mb 85f 83f
3:50pm 4ft 8s 6s 11 13 mph 1014.8mb 85f 83f
3:20pm  -   -   -  11 16 mph 1015mb 85f 83f
2:50pm 4ft 8s 6s 11 13 mph 1015.4mb 85f 83f
2:20pm  -   -   -  11 13 mph 1015.8mb 85f 83f
1:50pm 3.5ft 8s 6s 11 13 mph 1016.1mb 85f 83f
1:20pm  -   -   -  11 16 mph 1016.4mb 85f 83f
12:50pm 3.5ft 8s 6s 11 13 mph 1016.7mb 85f 83f
12:20pm  -   -   -  11 13 mph 1016.9mb 85f 83f
11:50am 4ft 8s 6s 11 13 mph 1017.1mb 85f 83f
11:20am  -   -   -  11 13 mph 1017.1mb 84f 83f
10:50am 4.5ft 8s 6s 11 13 mph 1017.1mb 84f 83f
10:20am  -   -   -  9 11 mph 1017.3mb 84f 83f
9:50am 4ft 7s 6s 9 13 mph 1017.1mb 84f 83f
9:20am  -   -   -  9 11 mph 1017.1mb 84f 83f
8:50am 4.5ft 8s 6s 9 13 mph 1016.9mb 84f 83f
8:20am  -   -   -  9 13 mph 1016.7mb 84f 83f
7:50am 4.5ft 8s 6s 11 13 mph 1016.5mb 84f 83f
7:20am  -   -   -  11 13 mph 1016.3mb 84f 82f
6:50am 4.5ft 7s 6s 11 13 mph 1016mb 84f 82f
6:20am  -   -   -  9 11 mph 1015.9mb 84f 82f
5:50am 4.5ft 8s 6s 9 11 mph 1015.9mb 84f 83f
5:20am  -   -   -  9 11 mph 1015.8mb 84f 82f
4:50am 4.5ft 8s 6s 11 13 mph 1015.6mb 84f 82f
4:20am  -   -   -  11 13 mph 1015.7mb 84f 83f
3:50am 4.5ft 9s 6s 9 11 mph 1015.9mb 84f 82f
3:20am  -   -   -  9 13 mph 1016.2mb 84f 83f
2:50am 4.5ft 8s 7s 9 11 mph 1016.4mb 84f 82f
2:20am  -   -   -  11 13 mph 1016.6mb 84f 83f
1:50am 4.5ft 8s 6s 11 13 mph 1016.6mb 84f 83f
1:20am  -   -   -  11 13 mph 1016.6mb 84f 83f
12:50am 4.5ft 8s 6s 9 11 mph 1016.6mb 84f 83f
12:20am  -   -   -  11 13 mph 1016.7mb 84f 83f
Sat 09/27 11:50pm 4.5ft 8s 6s 11 13 mph 1016.9mb 84f 83f
11:20pm  -   -   -  11 13 mph 1016.9mb 84f 83f
10:50pm 4ft 8s 6s 9 13 mph 1016.9mb 84f 83f
10:20pm  -   -   -  11 13 mph 1016.8mb 84f 83f
9:50pm 4ft 8s 6s 9 11 mph 1016.7mb 84f 83f
9:20pm  -   -   -  9 11 mph 1016.5mb 84f 83f
8:50pm 4ft 8s 6s 9 13 mph 1016.4mb 85f 83f
8:20pm  -   -   -  9 11 mph 1016mb 85f 83f
7:50pm 4.5ft 7s 6s 9 11 mph 1015.9mb 85f 83f
7:20pm  -   -   -  9 11 mph 1015.7mb 85f 83f
6:50pm 4.5ft 8s 6s 9 11 mph 1015.5mb 85f 83f
6:20pm  -   -   -  11 13 mph 1015.4mb 85f 84f
5:50pm 4.5ft 8s 6s 9 11 mph 1015.4mb 85f 84f
5:20pm  -   -   -  9 11 mph 1015.3mb 85f 83f
4:50pm 4.5ft 8s 6s 9 11 mph 1015.5mb 85f 83f
4:20pm  -   -   -  9 11 mph 1015.5mb 85f 83f
3:50pm 4.5ft 8s 7s 9 11 mph 1015.6mb 85f 83f
3:20pm  -   -   -  9 11 mph 1015.8mb 85f 83f
2:50pm 4.5ft 8s 7s 9 11 mph 1016mb 85f 83f
2:20pm  -   -   -  9 11 mph 1016.2mb 85f 83f
1:50pm 4.5ft 8s 7s 9 11 mph 1016.5mb 85f 83f
1:20pm  -   -   -  9 11 mph 1016.9mb 85f 83f
12:50pm 4.5ft 8s 7s 9 11 mph 1017.1mb 84f 84f
12:20pm  -   -   -  9 11 mph 1017.2mb 84f 83f
11:50am 4.5ft 9s 7s 9 11 mph 1017.3mb 84f 83f
11:20am  -   -   -  7 11 mph 1017.2mb 84f 83f
10:50am 4.5ft 8s 7s 9 11 mph 1017.2mb 84f 83f
10:20am  -   -   -  7 9 mph 1017mb 84f 83f
9:50am 4.5ft 8s 6s 7 9 mph 1016.7mb 84f 83f
9:20am  -   -   -  9 11 mph 1016.7mb 84f 83f
8:50am 5ft 8s 7s 7 9 mph 1016.6mb 84f 83f
8:20am  -   -   -  7 9 mph 1016.6mb 84f 83f
7:50am 4.5ft 8s 6s 7 9 mph 1016.3mb 84f 83f
7:20am  -   -   -  7 11 mph 1016.2mb 84f 82f
6:50am 4.5ft 8s 6s 9
mph
1015.9mb 84f 82f
6:20am  -   -   -  7 9 mph 1015.9mb 84f 82f
5:50am 4.5ft 8s 6s 9 11 mph 1015.8mb 84f 82f
5:20am  -   -   -  13 16 mph 1015.3mb 84f 81f
4:50am 4.5ft 8s 7s 7 11 mph 1015.5mb 84f 82f
4:20am  -   -   -  7 11 mph 1015.4mb 84f 82f
3:50am 4ft 8s 6s 7 9 mph 1015.5mb 84f 82f
3:20am  -   -   -  7 9 mph 1015.8mb 84f 83f
2:50am 4.5ft 8s 6s 7 9 mph 1015.9mb 84f 83f
2:20am  -   -   -  7 9 mph 1016mb 84f 82f
1:50am 4ft 8s 6s 7 9 mph 1016.3mb 84f 83f
1:20am  -   -   -  7 9 mph 1016.4mb 84f 83f
12:50am 4.5ft 8s 6s 9 11 mph 1016.3mb 84f 83f
12:20am  -   -   -  9 25 mph 1016.5mb 84f 83f
Fri 09/26 11:50pm 4ft 8s 6s 7 9 mph 1016.5mb 84f 83f
11:20pm  -   -   -  9 11 mph 1016.7mb 84f 83f
10:50pm 4.5ft 8s 6s 9 11 mph 1016.5mb 84f 83f
10:20pm  -   -   -  9 11 mph 1016.4mb 84f 83f
9:50pm 3.5ft 8s 6s 9 13 mph 1016.4mb 84f 83f
9:20pm  -   -   -  9 11 mph 1016.3mb 84f 82f
8:50pm 4.5ft 8s 6s 7 9 mph 1016.2mb 84f 82f
8:20pm  -   -   -  9 11 mph 1016.1mb 84f 82f